Time;durP1;ratioP1;P1;durP2;ratioP2;P2;SDS_P1;SDS_P2;PMS_P1;PMS_P2;Temp;Humidity;BMP_temperature;BMP_pressure;BME280_temperature;BME280_humidity;BME280_pressure;Samples;Min_cycle;Max_cycle;Signal;HPM_P1;HPM_P2
2022/10/11 00:00:46;;;;;;;;;;;21.40;50.70;;;;;;494090;241;1253;-54
2022/10/11 00:02:47;;;;;;;;;;;21.40;50.70;;;;;;494086;241;1198;-53
2022/10/11 00:04:49;;;;;;;;;;;21.40;50.70;;;;;;493965;241;1224;-54
2022/10/11 00:06:50;;;;;;;;;;;21.40;50.60;;;;;;494279;241;1208;-53
2022/10/11 00:08:51;;;;;;;;;;;21.40;50.60;;;;;;493801;241;2198;-54
2022/10/11 00:10:53;;;;;;;;;;;21.40;50.60;;;;;;494133;241;1561;-54
2022/10/11 00:12:54;;;;;;;;;;;21.40;50.60;;;;;;493907;241;1048;-53
2022/10/11 00:14:55;;;;;;;;;;;21.40;50.50;;;;;;493932;241;1237;-53
2022/10/11 00:16:57;;;;;;;;;;;21.50;50.50;;;;;;493986;241;1334;-53
2022/10/11 00:18:58;;;;;;;;;;;21.40;50.50;;;;;;493780;241;1217;-54
2022/10/11 00:20:59;;;;;;;;;;;21.40;50.50;;;;;;493770;241;1226;-54
2022/10/11 00:23:01;;;;;;;;;;;21.50;50.50;;;;;;493895;241;1299;-53
2022/10/11 00:25:02;;;;;;;;;;;21.40;50.50;;;;;;493779;241;1174;-54
2022/10/11 00:27:03;;;;;;;;;;;21.50;50.50;;;;;;493778;241;1192;-54
2022/10/11 00:29:05;;;;;;;;;;;21.40;50.50;;;;;;494244;241;2115;-54
2022/10/11 00:31:06;;;;;;;;;;;21.50;50.50;;;;;;493800;241;1295;-54
2022/10/11 00:33:07;;;;;;;;;;;21.40;50.40;;;;;;493965;241;1184;-54
2022/10/11 00:35:09;;;;;;;;;;;21.50;50.50;;;;;;494045;241;1242;-54
2022/10/11 00:37:10;;;;;;;;;;;21.50;50.50;;;;;;493810;241;1262;-54
2022/10/11 00:39:11;;;;;;;;;;;21.50;50.50;;;;;;493812;241;1207;-54
2022/10/11 00:41:13;;;;;;;;;;;21.50;50.50;;;;;;494267;241;1216;-54
2022/10/11 00:43:14;;;;;;;;;;;21.50;50.50;;;;;;493869;241;1228;-53
2022/10/11 00:45:15;;;;;;;;;;;21.40;50.40;;;;;;493813;241;1112;-54
2022/10/11 00:47:17;;;;;;;;;;;21.50;50.50;;;;;;493904;241;1180;-54
2022/10/11 00:49:18;;;;;;;;;;;21.40;50.50;;;;;;493843;241;2235;-54
2022/10/11 00:51:19;;;;;;;;;;;21.40;50.50;;;;;;494001;241;1207;-54
2022/10/11 00:53:21;;;;;;;;;;;21.40;50.50;;;;;;494296;241;1292;-53
2022/10/11 00:55:22;;;;;;;;;;;21.40;50.60;;;;;;493830;241;1167;-54
2022/10/11 00:57:23;;;;;;;;;;;21.40;50.50;;;;;;494146;241;1247;-54
2022/10/11 00:59:25;;;;;;;;;;;21.40;50.50;;;;;;494246;241;1291;-54
2022/10/11 01:01:26;;;;;;;;;;;21.40;50.60;;;;;;493808;241;1206;-53
2022/10/11 01:03:30;;;;;;;;;;;21.40;50.60;;;;;;493813;241;1399;-53
2022/10/11 01:05:31;;;;;;;;;;;21.40;50.60;;;;;;494266;241;1184;-54
2022/10/11 01:07:33;;;;;;;;;;;21.40;50.60;;;;;;494218;241;2191;-53
2022/10/11 01:09:34;;;;;;;;;;;21.40;50.60;;;;;;493787;241;1362;-53
2022/10/11 01:11:36;;;;;;;;;;;21.40;50.50;;;;;;493929;241;1251;-53
2022/10/11 01:13:37;;;;;;;;;;;21.40;50.60;;;;;;493867;241;1771;-54
2022/10/11 01:15:38;;;;;;;;;;;21.40;50.70;;;;;;494238;241;1185;-53
2022/10/11 01:17:39;;;;;;;;;;;21.40;50.70;;;;;;493793;241;1285;-54
2022/10/11 01:19:41;;;;;;;;;;;21.40;50.60;;;;;;494274;241;1242;-53
2022/10/11 01:21:42;;;;;;;;;;;21.40;50.60;;;;;;493974;241;1237;-54
2022/10/11 01:23:43;;;;;;;;;;;21.40;50.60;;;;;;493812;241;1240;-54
2022/10/11 01:25:45;;;;;;;;;;;21.40;50.60;;;;;;494254;241;1249;-54
2022/10/11 01:27:46;;;;;;;;;;;21.40;50.50;;;;;;494000;241;2171;-53
2022/10/11 01:29:48;;;;;;;;;;;21.40;50.50;;;;;;493980;241;1163;-54
2022/10/11 01:31:49;;;;;;;;;;;21.50;50.50;;;;;;494256;241;1294;-53
2022/10/11 01:33:50;;;;;;;;;;;21.40;50.50;;;;;;494124;241;1373;-53
2022/10/11 01:35:51;;;;;;;;;;;21.40;50.50;;;;;;494278;241;1314;-54
2022/10/11 01:37:53;;;;;;;;;;;21.40;50.40;;;;;;493986;241;1325;-54
2022/10/11 01:39:54;;;;;;;;;;;21.50;50.50;;;;;;494221;241;1496;-54
2022/10/11 01:41:55;;;;;;;;;;;21.50;50.40;;;;;;494151;241;1188;-53
2022/10/11 01:43:57;;;;;;;;;;;21.50;50.40;;;;;;493843;241;1241;-53
2022/10/11 01:45:58;;;;;;;;;;;21.50;50.50;;;;;;494225;241;1358;-54
2022/10/11 01:47:59;;;;;;;;;;;21.40;50.40;;;;;;493798;241;2196;-54
2022/10/11 01:50:01;;;;;;;;;;;21.40;50.50;;;;;;493839;241;1211;-54
2022/10/11 01:52:02;;;;;;;;;;;21.40;50.50;;;;;;493785;241;1407;-54
2022/10/11 01:54:03;;;;;;;;;;;21.50;50.50;;;;;;493790;241;1152;-53
2022/10/11 01:56:05;;;;;;;;;;;21.40;50.50;;;;;;493853;241;1243;-54
2022/10/11 01:58:06;;;;;;;;;;;21.50;50.50;;;;;;494108;241;1236;-53
2022/10/11 02:00:07;;;;;;;;;;;21.50;50.50;;;;;;493768;241;1250;-54
2022/10/11 02:02:09;;;;;;;;;;;21.40;50.50;;;;;;493819;241;1212;-53
2022/10/11 02:04:10;;;;;;;;;;;21.40;50.50;;;;;;493811;241;1226;-53
2022/10/11 02:06:11;;;;;;;;;;;21.40;50.60;;;;;;493783;241;1216;-53
2022/10/11 02:08:13;;;;;;;;;;;21.40;50.50;;;;;;494250;241;2243;-54
2022/10/11 02:10:14;;;;;;;;;;;21.40;50.50;;;;;;494285;241;1251;-53
2022/10/11 02:12:15;;;;;;;;;;;21.50;50.50;;;;;;494265;241;1314;-54
2022/10/11 02:14:17;;;;;;;;;;;21.40;50.50;;;;;;493860;241;1303;-54
2022/10/11 02:16:18;;;;;;;;;;;21.40;50.50;;;;;;494018;241;1247;-53
2022/10/11 02:18:19;;;;;;;;;;;21.50;50.50;;;;;;493821;241;1220;-53
2022/10/11 02:20:21;;;;;;;;;;;21.40;50.50;;;;;;493776;241;1382;-53
2022/10/11 02:22:22;;;;;;;;;;;21.40;50.50;;;;;;493777;241;1279;-54
2022/10/11 02:24:23;;;;;;;;;;;21.40;50.50;;;;;;493863;241;1306;-54
2022/10/11 02:26:25;;;;;;;;;;;21.40;50.50;;;;;;493763;241;1196;-53
2022/10/11 02:28:26;;;;;;;;;;;21.40;50.60;;;;;;493788;241;2195;-54
2022/10/11 02:30:27;;;;;;;;;;;21.40;50.50;;;;;;494211;241;1338;-54
2022/10/11 02:32:29;;;;;;;;;;;21.40;50.60;;;;;;494243;241;1212;-54
2022/10/11 02:34:30;;;;;;;;;;;21.40;50.60;;;;;;494245;241;1214;-53
2022/10/11 02:36:32;;;;;;;;;;;21.40;50.60;;;;;;493993;241;1221;-53
2022/10/11 02:38:33;;;;;;;;;;;21.40;50.60;;;;;;493987;241;1288;-54
2022/10/11 02:40:34;;;;;;;;;;;21.40;50.60;;;;;;494261;241;1073;-54
2022/10/11 02:42:36;;;;;;;;;;;21.40;50.60;;;;;;494223;241;1182;-54
2022/10/11 02:44:37;;;;;;;;;;;21.40;50.60;;;;;;493880;241;1209;-52
2022/10/11 02:46:38;;;;;;;;;;;21.40;50.50;;;;;;494264;241;1194;-54
2022/10/11 02:48:40;;;;;;;;;;;21.50;50.50;;;;;;493758;241;2211;-53
2022/10/11 02:50:41;;;;;;;;;;;21.40;50.40;;;;;;493781;241;1144;-53
2022/10/11 02:52:42;;;;;;;;;;;21.50;50.40;;;;;;494012;241;1212;-54
2022/10/11 02:54:44;;;;;;;;;;;21.50;50.40;;;;;;494146;241;1294;-54
2022/10/11 02:56:45;;;;;;;;;;;21.50;50.40;;;;;;494245;241;1222;-54
2022/10/11 02:58:47;;;;;;;;;;;21.40;50.40;;;;;;493885;241;1225;-53
2022/10/11 03:00:48;;;;;;;;;;;21.50;50.40;;;;;;493869;241;1216;-54
2022/10/11 03:02:49;;;;;;;;;;;21.50;50.40;;;;;;494252;241;1416;-54
2022/10/11 03:04:50;;;;;;;;;;;21.50;50.40;;;;;;493915;241;1229;-53
2022/10/11 03:06:52;;;;;;;;;;;21.50;50.40;;;;;;494143;241;1185;-54
2022/10/11 03:08:53;;;;;;;;;;;21.50;50.50;;;;;;494257;241;2151;-53
2022/10/11 03:10:54;;;;;;;;;;;21.40;50.40;;;;;;494097;241;1176;-54
2022/10/11 03:12:56;;;;;;;;;;;21.50;50.50;;;;;;493775;241;1688;-54
2022/10/11 03:14:57;;;;;;;;;;;21.40;50.50;;;;;;493823;241;1567;-54
2022/10/11 03:16:58;;;;;;;;;;;21.40;50.40;;;;;;494217;241;1221;-54
2022/10/11 03:19:00;;;;;;;;;;;21.40;50.40;;;;;;493863;241;1198;-53
2022/10/11 03:21:01;;;;;;;;;;;21.50;50.50;;;;;;493924;241;1344;-54
2022/10/11 03:23:02;;;;;;;;;;;21.40;50.50;;;;;;494003;241;1212;-54
2022/10/11 03:25:04;;;;;;;;;;;21.40;50.50;;;;;;494167;241;1547;-53
2022/10/11 03:27:05;;;;;;;;;;;21.40;50.50;;;;;;493981;241;1677;-54
2022/10/11 03:29:06;;;;;;;;;;;21.40;50.50;;;;;;493724;241;2160;-53
2022/10/11 03:31:08;;;;;;;;;;;21.40;50.50;;;;;;493757;241;1762;-54
2022/10/11 03:33:09;;;;;;;;;;;21.40;50.60;;;;;;493855;241;1261;-53
2022/10/11 03:35:10;;;;;;;;;;;21.40;50.50;;;;;;494227;241;1348;-53
2022/10/11 03:37:11;;;;;;;;;;;21.40;50.50;;;;;;493776;241;1236;-54
2022/10/11 03:39:13;;;;;;;;;;;21.40;50.50;;;;;;493818;241;1087;-54
2022/10/11 03:41:14;;;;;;;;;;;21.40;50.50;;;;;;494267;241;1177;-54
2022/10/11 03:43:15;;;;;;;;;;;21.50;50.50;;;;;;494266;241;1287;-53
2022/10/11 03:45:17;;;;;;;;;;;21.40;50.50;;;;;;493874;241;1152;-54
2022/10/11 03:47:18;;;;;;;;;;;21.40;50.50;;;;;;494052;241;1057;-53
2022/10/11 03:49:19;;;;;;;;;;;21.40;50.50;;;;;;493772;241;2148;-53
2022/10/11 03:51:21;;;;;;;;;;;21.40;50.60;;;;;;494287;241;1255;-53
2022/10/11 03:53:22;;;;;;;;;;;21.40;50.60;;;;;;494270;241;1281;-53
2022/10/11 03:55:23;;;;;;;;;;;21.40;50.70;;;;;;494022;241;1183;-54
2022/10/11 03:57:25;;;;;;;;;;;21.40;50.60;;;;;;494241;241;1196;-53
2022/10/11 03:59:26;;;;;;;;;;;21.40;50.60;;;;;;494047;241;1384;-54
2022/10/11 04:01:27;;;;;;;;;;;21.40;50.60;;;;;;494085;241;1262;-53
2022/10/11 04:03:29;;;;;;;;;;;21.40;50.60;;;;;;494247;241;1529;-53
2022/10/11 04:05:30;;;;;;;;;;;21.40;50.60;;;;;;493776;241;1206;-54
2022/10/11 04:07:32;;;;;;;;;;;21.40;50.60;;;;;;493768;241;1232;-54
2022/10/11 04:09:33;;;;;;;;;;;21.40;50.60;;;;;;494001;241;2152;-54
2022/10/11 04:11:34;;;;;;;;;;;21.40;50.60;;;;;;494270;241;1192;-54
2022/10/11 04:13:36;;;;;;;;;;;21.40;50.50;;;;;;493806;241;1203;-54
2022/10/11 04:15:37;;;;;;;;;;;21.40;50.50;;;;;;493768;241;1184;-53
2022/10/11 04:17:38;;;;;;;;;;;21.50;50.50;;;;;;494237;241;1196;-53
2022/10/11 04:19:40;;;;;;;;;;;21.40;50.50;;;;;;493986;241;1202;-54
2022/10/11 04:21:41;;;;;;;;;;;21.40;50.50;;;;;;493811;241;1282;-54
2022/10/11 04:23:42;;;;;;;;;;;21.40;50.40;;;;;;493990;241;1174;-53
2022/10/11 04:25:45;;;;;;;;;;;21.50;50.50;;;;;;493790;241;1254;-53
2022/10/11 04:27:46;;;;;;;;;;;21.40;50.50;;;;;;493975;241;2351;-54
2022/10/11 04:29:47;;;;;;;;;;;21.40;50.50;;;;;;493765;241;2191;-54
2022/10/11 04:31:49;;;;;;;;;;;21.40;50.50;;;;;;494046;241;1299;-53
2022/10/11 04:33:50;;;;;;;;;;;21.40;50.50;;;;;;494225;241;1176;-54
2022/10/11 04:35:51;;;;;;;;;;;21.40;50.50;;;;;;494231;241;1264;-54
2022/10/11 04:37:52;;;;;;;;;;;21.40;50.50;;;;;;494116;241;1226;-53
2022/10/11 04:39:54;;;;;;;;;;;21.40;50.50;;;;;;493973;241;1188;-53
2022/10/11 04:41:55;;;;;;;;;;;21.40;50.50;;;;;;493812;241;1162;-53
2022/10/11 04:43:57;;;;;;;;;;;21.40;50.60;;;;;;494203;241;1189;-54
2022/10/11 04:45:58;;;;;;;;;;;21.40;50.60;;;;;;493772;241;1182;-54
2022/10/11 04:47:59;;;;;;;;;;;21.40;50.60;;;;;;494219;241;1222;-54
2022/10/11 04:50:01;;;;;;;;;;;21.40;50.70;;;;;;494203;241;2183;-54
2022/10/11 04:52:02;;;;;;;;;;;21.40;50.70;;;;;;493845;241;1304;-54
2022/10/11 04:54:03;;;;;;;;;;;21.40;50.70;;;;;;494243;241;1562;-54
2022/10/11 04:56:04;;;;;;;;;;;21.30;50.70;;;;;;494303;241;1238;-54
2022/10/11 04:58:06;;;;;;;;;;;21.40;50.70;;;;;;494023;241;1352;-53
2022/10/11 05:00:07;;;;;;;;;;;21.30;50.70;;;;;;494023;241;1396;-53
2022/10/11 05:02:08;;;;;;;;;;;21.40;50.70;;;;;;493796;241;1197;-54
2022/10/11 05:04:10;;;;;;;;;;;21.40;50.80;;;;;;493891;241;1092;-54
2022/10/11 05:06:11;;;;;;;;;;;21.30;50.60;;;;;;493835;241;1237;-54
2022/10/11 05:08:12;;;;;;;;;;;21.40;50.70;;;;;;493764;241;1140;-54
2022/10/11 05:10:14;;;;;;;;;;;21.30;50.60;;;;;;493866;241;2191;-54
2022/10/11 05:12:15;;;;;;;;;;;21.40;50.70;;;;;;493728;241;1184;-54
2022/10/11 05:14:16;;;;;;;;;;;21.30;50.70;;;;;;494046;241;1720;-54
2022/10/11 05:16:18;;;;;;;;;;;21.30;50.70;;;;;;493754;241;1178;-54
2022/10/11 05:18:19;;;;;;;;;;;21.30;50.80;;;;;;493758;241;1242;-54
2022/10/11 05:20:20;;;;;;;;;;;21.40;50.70;;;;;;493860;241;1298;-53
2022/10/11 05:22:22;;;;;;;;;;;21.40;50.70;;;;;;493945;241;1282;-53
2022/10/11 05:24:23;;;;;;;;;;;21.40;50.50;;;;;;493904;241;1624;-54
2022/10/11 05:26:24;;;;;;;;;;;21.60;50.10;;;;;;493960;241;1581;-54
2022/10/11 05:28:26;;;;;;;;;;;21.80;49.80;;;;;;493797;241;1351;-54
2022/10/11 05:30:27;;;;;;;;;;;21.90;49.50;;;;;;493980;241;2160;-53
2022/10/11 05:32:28;;;;;;;;;;;21.90;49.40;;;;;;493578;241;1219;-54
2022/10/11 05:34:30;;;;;;;;;;;21.90;49.50;;;;;;493798;241;1432;-53
2022/10/11 05:36:31;;;;;;;;;;;21.80;49.70;;;;;;494014;241;1199;-53
2022/10/11 05:38:33;;;;;;;;;;;21.70;49.90;;;;;;493734;241;1312;-54
2022/10/11 05:40:34;;;;;;;;;;;21.70;50.00;;;;;;493680;241;1285;-54
2022/10/11 05:42:35;;;;;;;;;;;21.60;50.00;;;;;;493579;241;1219;-53
2022/10/11 05:44:37;;;;;;;;;;;21.60;50.10;;;;;;493751;241;1220;-53
2022/10/11 05:46:38;;;;;;;;;;;21.60;50.20;;;;;;493789;241;2524;-54
2022/10/11 05:48:39;;;;;;;;;;;21.60;50.20;;;;;;493827;241;1180;-53
2022/10/11 05:50:41;;;;;;;;;;;21.50;50.20;;;;;;493888;241;2202;-53
2022/10/11 05:52:42;;;;;;;;;;;21.50;50.30;;;;;;493744;241;1322;-54
2022/10/11 05:54:43;;;;;;;;;;;21.50;50.40;;;;;;493757;241;1381;-53
2022/10/11 05:56:45;;;;;;;;;;;21.50;50.30;;;;;;493739;241;1191;-54
2022/10/11 05:58:46;;;;;;;;;;;21.50;50.40;;;;;;493816;241;1162;-53
2022/10/11 06:00:47;;;;;;;;;;;21.50;50.40;;;;;;493642;241;1337;-54
2022/10/11 06:02:49;;;;;;;;;;;21.50;50.50;;;;;;493728;241;1242;-53
2022/10/11 06:04:50;;;;;;;;;;;21.40;50.50;;;;;;493667;241;1242;-53
2022/10/11 06:06:51;;;;;;;;;;;21.50;50.50;;;;;;493786;241;1188;-53
2022/10/11 06:08:53;;;;;;;;;;;21.40;50.50;;;;;;493569;241;1206;-53
2022/10/11 06:10:54;;;;;;;;;;;21.50;50.50;;;;;;493858;241;2190;-54
2022/10/11 06:12:55;;;;;;;;;;;21.50;50.50;;;;;;493771;241;1200;-54
2022/10/11 06:14:57;;;;;;;;;;;21.40;50.50;;;;;;494077;241;1353;-53
2022/10/11 06:16:58;;;;;;;;;;;21.40;50.50;;;;;;493755;241;1239;-54
2022/10/11 06:18:59;;;;;;;;;;;21.40;50.60;;;;;;493965;241;1181;-54
2022/10/11 06:21:01;;;;;;;;;;;21.40;50.60;;;;;;493633;241;1187;-53
2022/10/11 06:23:02;;;;;;;;;;;21.50;50.60;;;;;;493962;241;1206;-53
2022/10/11 06:25:03;;;;;;;;;;;21.40;50.60;;;;;;493866;241;1226;-53
2022/10/11 06:27:04;;;;;;;;;;;21.50;50.60;;;;;;493820;241;1185;-53
2022/10/11 06:29:06;;;;;;;;;;;21.40;50.60;;;;;;493672;241;1168;-54
2022/10/11 06:31:07;;;;;;;;;;;21.50;50.60;;;;;;493541;241;2191;-53
2022/10/11 06:33:08;;;;;;;;;;;21.50;50.60;;;;;;493806;241;1113;-53
2022/10/11 06:35:10;;;;;;;;;;;21.50;50.60;;;;;;493581;241;1349;-53
2022/10/11 06:37:11;;;;;;;;;;;21.50;50.60;;;;;;493926;241;1235;-54
2022/10/11 06:39:13;;;;;;;;;;;21.50;50.60;;;;;;494031;241;1081;-53
2022/10/11 06:41:14;;;;;;;;;;;21.50;50.60;;;;;;493795;241;1179;-54
2022/10/11 06:43:15;;;;;;;;;;;21.50;50.60;;;;;;494071;241;2366;-54
2022/10/11 06:45:16;;;;;;;;;;;21.60;50.60;;;;;;493975;241;1223;-54
2022/10/11 06:47:18;;;;;;;;;;;21.50;50.50;;;;;;493704;241;1269;-54
2022/10/11 06:49:19;;;;;;;;;;;21.60;50.60;;;;;;493791;241;1389;-54
2022/10/11 06:51:20;;;;;;;;;;;21.50;50.50;;;;;;493768;241;2151;-53
2022/10/11 06:53:22;;;;;;;;;;;21.60;50.50;;;;;;493550;241;1235;-53
2022/10/11 06:55:23;;;;;;;;;;;21.50;50.50;;;;;;493825;241;1445;-53
2022/10/11 06:57:24;;;;;;;;;;;21.50;50.60;;;;;;493706;241;1218;-53
2022/10/11 06:59:26;;;;;;;;;;;21.60;50.70;;;;;;493626;241;1206;-53
2022/10/11 07:01:27;;;;;;;;;;;21.50;50.60;;;;;;493574;241;1173;-52
2022/10/11 07:03:28;;;;;;;;;;;21.50;50.60;;;;;;493645;241;1156;-54
2022/10/11 07:05:30;;;;;;;;;;;21.50;50.60;;;;;;493809;241;1260;-53
2022/10/11 07:07:31;;;;;;;;;;;21.50;50.60;;;;;;493527;241;1696;-53
2022/10/11 07:09:32;;;;;;;;;;;21.60;50.70;;;;;;493645;241;1211;-54
2022/10/11 07:11:34;;;;;;;;;;;21.50;50.70;;;;;;493526;241;2203;-54
2022/10/11 07:13:35;;;;;;;;;;;21.50;50.70;;;;;;493452;241;1205;-53
2022/10/11 07:15:39;;;;;;;;;;;21.50;50.80;;;;;;493753;241;1220;-54
2022/10/11 07:17:39;;;;;;;;;;;21.60;50.80;;;;;;493354;241;1500;-54
2022/10/11 07:19:40;;;;;;;;;;;21.50;50.80;;;;;;493342;241;1104;-53
2022/10/11 07:21:41;;;;;;;;;;;21.50;50.80;;;;;;493182;241;1194;-53
2022/10/11 07:23:43;;;;;;;;;;;21.50;50.80;;;;;;493381;241;1239;-54
2022/10/11 07:25:44;;;;;;;;;;;21.50;50.80;;;;;;493448;241;1204;-54
2022/10/11 07:27:45;;;;;;;;;;;21.50;50.80;;;;;;493497;241;1285;-53
2022/10/11 07:29:47;;;;;;;;;;;21.60;50.80;;;;;;493320;241;2195;-54
2022/10/11 07:31:48;;;;;;;;;;;21.80;50.40;;;;;;493413;241;1223;-54
2022/10/11 07:33:49;;;;;;;;;;;21.90;49.90;;;;;;493484;241;1163;-53
2022/10/11 07:35:51;;;;;;;;;;;22.00;49.90;;;;;;493365;241;1403;-54
2022/10/11 07:37:52;;;;;;;;;;;21.90;49.90;;;;;;493478;241;1225;-54
2022/10/11 07:39:53;;;;;;;;;;;21.90;50.20;;;;;;493185;241;1314;-53
2022/10/11 07:41:55;;;;;;;;;;;21.80;50.30;;;;;;493376;241;1284;-53
2022/10/11 07:43:56;;;;;;;;;;;21.70;50.40;;;;;;493471;241;1215;-54
2022/10/11 07:46:02;;;;;;;;;;;21.70;50.60;;;;;;493404;241;1205;-53
2022/10/11 07:47:59;;;;;;;;;;;21.70;50.60;;;;;;493308;241;2389;-54
2022/10/11 07:50:00;;;;;;;;;;;21.70;50.70;;;;;;493638;241;2152;-52
2022/10/11 07:52:01;;;;;;;;;;;21.70;50.80;;;;;;493994;241;1141;-53
2022/10/11 07:54:03;;;;;;;;;;;21.60;50.80;;;;;;493584;241;1146;-53
2022/10/11 07:56:04;;;;;;;;;;;21.60;50.80;;;;;;493862;241;1178;-54
2022/10/11 07:58:05;;;;;;;;;;;21.60;50.80;;;;;;493763;241;1244;-53
2022/10/11 08:00:07;;;;;;;;;;;21.60;50.90;;;;;;493530;241;1234;-54
2022/10/11 08:02:08;;;;;;;;;;;21.60;50.90;;;;;;493234;241;1253;-53
2022/10/11 08:04:10;;;;;;;;;;;21.70;50.90;;;;;;493526;241;1241;-53
2022/10/11 08:06:11;;;;;;;;;;;21.60;50.90;;;;;;493884;241;1344;-53
2022/10/11 08:08:12;;;;;;;;;;;21.60;50.90;;;;;;493866;241;1274;-53
2022/10/11 08:10:14;;;;;;;;;;;21.60;50.90;;;;;;493288;241;2151;-53
2022/10/11 08:12:15;;;;;;;;;;;21.70;51.00;;;;;;493651;241;1181;-53
2022/10/11 08:14:17;;;;;;;;;;;21.70;51.00;;;;;;493634;241;1104;-53
2022/10/11 08:16:18;;;;;;;;;;;21.70;51.00;;;;;;493641;241;1196;-53
2022/10/11 08:18:19;;;;;;;;;;;21.70;51.00;;;;;;493226;241;1408;-54
2022/10/11 08:20:20;;;;;;;;;;;21.70;51.00;;;;;;493421;241;1157;-53
2022/10/11 08:22:22;;;;;;;;;;;21.70;51.00;;;;;;493612;241;1167;-53
2022/10/11 08:24:24;;;;;;;;;;;21.70;51.00;;;;;;493230;241;1293;-53
2022/10/11 08:26:24;;;;;;;;;;;21.70;51.00;;;;;;492972;241;2437;-53
2022/10/11 08:28:26;;;;;;;;;;;21.70;51.00;;;;;;493336;241;1441;-53
2022/10/11 08:30:27;;;;;;;;;;;21.70;51.00;;;;;;493080;241;2199;-52
2022/10/11 08:32:28;;;;;;;;;;;21.70;51.00;;;;;;493152;241;1388;-53
2022/10/11 08:34:30;;;;;;;;;;;21.70;51.00;;;;;;493689;241;1217;-52
2022/10/11 08:36:31;;;;;;;;;;;21.80;51.00;;;;;;493609;241;1318;-52
2022/10/11 08:38:32;;;;;;;;;;;21.70;51.00;;;;;;493765;241;1244;-53
2022/10/11 08:40:34;;;;;;;;;;;21.70;51.10;;;;;;493605;241;1097;-52
2022/10/11 08:42:35;;;;;;;;;;;21.70;51.00;;;;;;492664;241;1186;-52
2022/10/11 08:44:37;;;;;;;;;;;21.70;51.00;;;;;;493599;241;1282;-53
2022/10/11 08:46:38;;;;;;;;;;;21.80;51.00;;;;;;493648;241;1123;-53
2022/10/11 08:48:39;;;;;;;;;;;21.80;51.00;;;;;;493669;241;1160;-52
2022/10/11 08:50:40;;;;;;;;;;;21.80;51.10;;;;;;493437;241;2192;-53
2022/10/11 08:52:42;;;;;;;;;;;21.80;51.00;;;;;;493400;241;1222;-53
2022/10/11 08:54:44;;;;;;;;;;;21.80;51.10;;;;;;493448;241;1088;-53
2022/10/11 08:56:44;;;;;;;;;;;21.80;51.00;;;;;;493622;241;1511;-53
2022/10/11 08:58:46;;;;;;;;;;;21.80;51.10;;;;;;493460;241;1193;-52
2022/10/11 09:00:47;;;;;;;;;;;21.80;51.00;;;;;;493373;241;1201;-53
2022/10/11 09:02:48;;;;;;;;;;;21.80;51.00;;;;;;493467;241;1208;-53
2022/10/11 09:04:50;;;;;;;;;;;21.80;51.10;;;;;;493608;241;1245;-52
2022/10/11 09:06:51;;;;;;;;;;;21.80;51.10;;;;;;493719;241;1180;-52
2022/10/11 09:08:52;;;;;;;;;;;21.80;51.10;;;;;;493713;241;1193;-52
2022/10/11 09:10:54;;;;;;;;;;;21.80;51.20;;;;;;493566;241;2194;-52
2022/10/11 09:12:55;;;;;;;;;;;21.80;51.20;;;;;;493678;241;1208;-52
2022/10/11 09:14:56;;;;;;;;;;;21.80;51.30;;;;;;493279;241;1213;-53
2022/10/11 09:16:58;;;;;;;;;;;21.80;51.40;;;;;;493592;241;1179;-51
2022/10/11 09:18:59;;;;;;;;;;;21.80;51.40;;;;;;493614;241;1319;-52
2022/10/11 09:21:00;;;;;;;;;;;21.80;51.40;;;;;;493747;241;1213;-53
2022/10/11 09:23:02;;;;;;;;;;;21.80;51.40;;;;;;493614;241;1096;-53
2022/10/11 09:25:03;;;;;;;;;;;21.90;51.50;;;;;;493561;241;1074;-53
2022/10/11 09:27:04;;;;;;;;;;;21.90;51.50;;;;;;493801;241;1475;-53
2022/10/11 09:29:06;;;;;;;;;;;21.80;51.50;;;;;;493458;241;1255;-53
2022/10/11 09:31:07;;;;;;;;;;;21.80;51.50;;;;;;493665;241;2187;-53
2022/10/11 09:33:08;;;;;;;;;;;21.90;51.60;;;;;;493474;241;1187;-53
2022/10/11 09:35:10;;;;;;;;;;;21.80;51.50;;;;;;493284;241;1256;-53
2022/10/11 09:37:11;;;;;;;;;;;21.90;51.60;;;;;;493669;241;1224;-52
2022/10/11 09:39:12;;;;;;;;;;;21.90;51.60;;;;;;493475;241;1319;-53
2022/10/11 09:41:14;;;;;;;;;;;21.90;51.60;;;;;;493697;241;1307;-53
2022/10/11 09:43:15;;;;;;;;;;;21.80;51.70;;;;;;493362;241;1209;-52
2022/10/11 09:45:17;;;;;;;;;;;21.80;51.70;;;;;;493363;241;1346;-52
2022/10/11 09:47:18;;;;;;;;;;;21.90;51.60;;;;;;493686;241;1213;-53
2022/10/11 09:49:19;;;;;;;;;;;21.90;51.40;;;;;;493328;241;1212;-53
2022/10/11 09:51:20;;;;;;;;;;;21.90;51.30;;;;;;493438;241;2143;-52
2022/10/11 09:53:22;;;;;;;;;;;21.90;51.10;;;;;;493474;241;1269;-53
2022/10/11 09:55:23;;;;;;;;;;;21.90;51.00;;;;;;493458;241;1132;-52
2022/10/11 09:57:25;;;;;;;;;;;22.00;51.00;;;;;;493385;241;1183;-53
2022/10/11 09:59:26;;;;;;;;;;;22.00;50.70;;;;;;493303;241;1236;-53
2022/10/11 10:01:28;;;;;;;;;;;22.00;50.50;;;;;;493507;241;1169;-53
2022/10/11 10:03:29;;;;;;;;;;;22.00;50.40;;;;;;493422;241;2306;-53
2022/10/11 10:05:30;;;;;;;;;;;22.00;50.40;;;;;;493618;241;1302;-53
2022/10/11 10:07:31;;;;;;;;;;;22.00;50.20;;;;;;493492;241;1275;-52
2022/10/11 10:09:33;;;;;;;;;;;22.00;50.10;;;;;;493454;241;1258;-53
2022/10/11 10:11:34;;;;;;;;;;;22.00;50.10;;;;;;493492;241;2180;-53
2022/10/11 10:13:35;;;;;;;;;;;22.00;50.10;;;;;;493455;241;1607;-52
2022/10/11 10:15:37;;;;;;;;;;;22.10;50.00;;;;;;493556;241;1240;-53
2022/10/11 10:17:38;;;;;;;;;;;22.00;49.80;;;;;;493597;241;1174;-53
2022/10/11 10:19:40;;;;;;;;;;;22.10;49.80;;;;;;493388;241;1234;-52
2022/10/11 10:21:41;;;;;;;;;;;22.10;49.90;;;;;;493550;241;1313;-53
2022/10/11 10:23:42;;;;;;;;;;;22.10;49.80;;;;;;493682;241;1066;-53
2022/10/11 10:25:46;;;;;;;;;;;22.10;49.50;;;;;;493645;241;1185;-53
2022/10/11 10:27:45;;;;;;;;;;;22.10;49.50;;;;;;493186;241;2353;-53
2022/10/11 10:29:47;;;;;;;;;;;22.10;49.60;;;;;;493592;241;1224;-53
2022/10/11 10:31:48;;;;;;;;;;;22.10;49.40;;;;;;493512;241;2187;-53
2022/10/11 10:33:49;;;;;;;;;;;22.10;49.30;;;;;;493656;241;1172;-53
2022/10/11 10:35:51;;;;;;;;;;;22.10;49.30;;;;;;493540;241;1279;-53
2022/10/11 10:37:52;;;;;;;;;;;22.10;49.10;;;;;;493706;241;1190;-53
2022/10/11 10:39:53;;;;;;;;;;;22.10;49.10;;;;;;493876;241;1158;-52
2022/10/11 10:41:55;;;;;;;;;;;22.10;49.10;;;;;;493687;241;1181;-53
2022/10/11 10:43:56;;;;;;;;;;;22.10;49.20;;;;;;493436;241;1333;-52
2022/10/11 10:45:57;;;;;;;;;;;22.10;49.40;;;;;;493321;241;1242;-53
2022/10/11 10:47:59;;;;;;;;;;;22.10;49.60;;;;;;493318;241;1179;-52
2022/10/11 10:50:00;;;;;;;;;;;22.10;49.80;;;;;;493375;241;1308;-52
2022/10/11 10:52:04;;;;;;;;;;;22.10;50.00;;;;;;493585;241;2199;-53
2022/10/11 10:54:03;;;;;;;;;;;22.00;50.10;;;;;;493710;241;2307;-52
2022/10/11 10:56:04;;;;;;;;;;;22.00;50.20;;;;;;493472;241;1295;-52
2022/10/11 10:58:08;;;;;;;;;;;22.00;50.30;;;;;;493580;241;1248;-53
2022/10/11 11:00:07;;;;;;;;;;;22.00;50.40;;;;;;493025;241;1904;-53
2022/10/11 11:02:09;;;;;;;;;;;22.00;50.50;;;;;;493108;241;1225;-53
2022/10/11 11:04:10;;;;;;;;;;;22.00;50.50;;;;;;493146;241;1274;-51
2022/10/11 11:06:11;;;;;;;;;;;22.00;50.50;;;;;;493111;241;1675;-52
2022/10/11 11:08:13;;;;;;;;;;;22.00;50.60;;;;;;493132;241;1220;-53
2022/10/11 11:10:14;;;;;;;;;;;22.00;50.70;;;;;;493246;241;1236;-53
2022/10/11 11:12:15;;;;;;;;;;;22.00;50.60;;;;;;493382;241;2194;-53
2022/10/11 11:14:17;;;;;;;;;;;22.00;50.70;;;;;;493137;241;1293;-53
2022/10/11 11:16:18;;;;;;;;;;;22.00;50.80;;;;;;492870;241;1662;-53
2022/10/11 11:18:19;;;;;;;;;;;22.00;50.80;;;;;;492832;241;1241;-53
2022/10/11 11:20:21;;;;;;;;;;;22.00;50.80;;;;;;493049;241;1403;-53
2022/10/11 11:22:22;;;;;;;;;;;22.00;50.70;;;;;;493177;241;1555;-53
2022/10/11 11:24:23;;;;;;;;;;;22.00;50.80;;;;;;493297;241;1210;-53
2022/10/11 11:26:25;;;;;;;;;;;22.00;50.90;;;;;;493307;241;1490;-53
2022/10/11 11:28:26;;;;;;;;;;;22.00;50.90;;;;;;493561;241;1223;-53
2022/10/11 11:30:27;;;;;;;;;;;22.00;50.90;;;;;;493266;241;1245;-54
2022/10/11 11:32:29;;;;;;;;;;;22.00;50.90;;;;;;493292;241;2148;-53
2022/10/11 11:34:30;;;;;;;;;;;22.00;50.90;;;;;;493628;241;1323;-53
2022/10/11 11:36:31;;;;;;;;;;;22.00;51.00;;;;;;493483;241;1380;-54
2022/10/11 11:38:33;;;;;;;;;;;22.00;51.00;;;;;;493555;241;1256;-53
2022/10/11 11:40:34;;;;;;;;;;;22.00;51.00;;;;;;493253;241;1228;-54
2022/10/11 11:42:35;;;;;;;;;;;22.00;51.00;;;;;;493450;241;1202;-54
2022/10/11 11:44:37;;;;;;;;;;;22.00;51.10;;;;;;493447;241;1227;-54
2022/10/11 11:46:38;;;;;;;;;;;21.90;51.00;;;;;;493666;241;1333;-54
2022/10/11 11:48:39;;;;;;;;;;;22.00;51.10;;;;;;493433;241;1214;-53
2022/10/11 11:50:41;;;;;;;;;;;21.90;51.00;;;;;;493665;241;1362;-54
2022/10/11 11:52:43;;;;;;;;;;;21.90;51.00;;;;;;493639;241;2159;-53
2022/10/11 11:54:44;;;;;;;;;;;21.90;51.00;;;;;;493403;241;1264;-53
2022/10/11 11:56:45;;;;;;;;;;;22.00;51.10;;;;;;493485;241;1212;-54